CMA CGM J. Adams — MAZS6 — position and weather

sailwx.info

Track history (hours):
 
Tides and Currents Weather Stations Pressure Air Temp Water Temp Dewpoint Dewpoint Depression Visibility Wind Speed Wind Dir Waves Ship Positions

CMA CGM J. Adams

Last reported at 2017-Sep-17 08:25 UTC. Time now 2017-Sep-23 16:41 UTC.
Position N 32°50' W 079°54'.

Length 366 m; draft 12.8 m.

Type: Ship (hazmat cat D). MMSI: 232007935.

Date/timePositionNaut miles runAvg speedWind from/ knotsBaromVisibWave heightAir tempDewpointWater temp
2017-Sep-17 08:25N 32°50' W 079°54'0 0.0
2017-Sep-17 07:55N 32°50' W 079°54'0 0.0
2017-Sep-17 07:07N 32°50' W 079°54'0 0.1
2017-Sep-17 07:01N 32°50' W 079°54'1 1.9
2017-Sep-17 06:30N 32°49' W 079°54'3 6.1
2017-Sep-17 06:00N 32°46' W 079°53'611.9
2017-Sep-17 05:30N 32°43' W 079°47'813.7
2017-Sep-17 04:55N 32°39' W 079°39'27 2.1
2017-Sep-16 16:05N 32°16' W 079°56'1 8.4
2017-Sep-16 16:00N 32°16' W 079°57'7 8.5
2017-Sep-16 15:14N 32°11' W 080°02'2 8.6
2017-Sep-16 15:00N 32°10' W 080°04'4 8.7
2017-Sep-16 14:30N 32°07' W 080°08'4 8.6
2017-Sep-16 14:00N 32°04' W 080°11'4 8.6
2017-Sep-16 13:30N 32°01' W 080°15'4 8.4
2017-Sep-16 13:00N 31°58' W 080°18'4 8.9
2017-Sep-16 12:30N 31°56' W 080°23'510.0
2017-Sep-16 12:00N 31°56' W 080°29'510.0
2017-Sep-16 11:30N 31°57' W 080°35'5 9.3
2017-Sep-16 11:00N 31°57' W 080°41'510.1
2017-Sep-16 10:30N 31°59' W 080°46'510.5
2017-Sep-16 10:00N 32°02' W 080°51'5 9.0
2017-Sep-16 09:29N 32°03' W 080°56'4 8.5
2017-Sep-16 09:00N 32°06' W 080°60'3 6.7
2017-Sep-16 08:30N 32°05' W 081°04'2 4.5
2017-Sep-16 08:00N 32°06' W 081°06'2 3.7
2017-Sep-16 07:30N 32°07' W 081°08'1 2.4
2017-Sep-16 07:00N 32°08' W 081°08'0 0.7
2017-Sep-16 06:21N 32°08' W 081°09'0 0.0
2017-Sep-16 05:57N 32°08' W 081°09'0 0.0
2017-Sep-16 05:09N 32°08' W 081°09'0 0.0
2017-Sep-16 04:57N 32°08' W 081°09'0 0.0
2017-Sep-16 04:21N 32°08' W 081°09'0 0.0
2017-Sep-16 03:45N 32°08' W 081°09'0 0.0
2017-Sep-16 03:21N 32°08' W 081°09'0 0.0
2017-Sep-16 02:57N 32°08' W 081°09'0 0.0
2017-Sep-16 02:27N 32°08' W 081°09'0 0.0
2017-Sep-16 01:57N 32°08' W 081°09'0 0.0
2017-Sep-16 01:27N 32°08' W 081°09'0 0.0
2017-Sep-16 00:57N 32°08' W 081°09'0 0.0
2017-Sep-16 00:27N 32°08' W 081°09'0 0.0
2017-Sep-15 23:57N 32°08' W 081°09'0 0.0
2017-Sep-15 23:27N 32°08' W 081°09'0 0.0
2017-Sep-15 22:57N 32°08' W 081°09'0 0.0
2017-Sep-15 22:27N 32°08' W 081°09'0 0.0
2017-Sep-15 21:57N 32°08' W 081°09'0 0.0
2017-Sep-15 21:27N 32°08' W 081°09'0 0.0
2017-Sep-15 20:57N 32°08' W 081°09'0 0.0
2017-Sep-15 20:27N 32°08' W 081°09'0 0.0
2017-Sep-15 19:57N 32°08' W 081°09'0 0.0
2017-Sep-15 19:27N 32°08' W 081°09'0 0.0
2017-Sep-15 18:57N 32°08' W 081°09'0 0.0
2017-Sep-15 18:27N 32°08' W 081°09'0 0.0
2017-Sep-15 17:57N 32°08' W 081°09'0 0.0
2017-Sep-15 17:29N 32°08' W 081°09'0 0.0
2017-Sep-15 17:00N 32°08' W 081°09'0 0.0
2017-Sep-15 16:24N 32°08' W 081°09'0 0.0
2017-Sep-15 15:48N 32°08' W 081°09'0 0.0
2017-Sep-15 15:30N 32°08' W 081°09'0 0.0
2017-Sep-15 15:00N 32°08' W 081°09'0 0.0
2017-Sep-15 14:30N 32°08' W 081°09'0 0.0
2017-Sep-15 14:00N 32°08' W 081°09'0 0.0
2017-Sep-15 13:24N 32°08' W 081°09'0 0.0
2017-Sep-15 13:00N 32°08' W 081°09'0 0.0
2017-Sep-15 12:30N 32°08' W 081°09'0 0.0
2017-Sep-15 12:00N 32°08' W 081°09'0 0.0
2017-Sep-15 11:30N 32°08' W 081°09'0 0.0
2017-Sep-15 11:00N 32°08' W 081°09'0 0.0
2017-Sep-15 10:30N 32°08' W 081°09'0 0.0
2017-Sep-15 10:00N 32°08' W 081°09'0 0.0
2017-Sep-15 09:30N 32°08' W 081°09'0 0.0
2017-Sep-15 09:00N 32°08' W 081°09'0 0.0
2017-Sep-15 08:30N 32°08' W 081°09'0 0.0
2017-Sep-15 08:00N 32°08' W 081°09'0 0.0
2017-Sep-15 07:30N 32°08' W 081°09'0 0.0
2017-Sep-15 07:00N 32°08' W 081°09'0 0.0
2017-Sep-15 06:30N 32°08' W 081°09'0 0.0
2017-Sep-15 06:00N 32°08' W 081°09'0 0.0
2017-Sep-15 05:24N 32°08' W 081°09'0 0.0
2017-Sep-15 05:00N 32°08' W 081°09'0 0.0
2017-Sep-15 04:30N 32°08' W 081°09'0 0.0
2017-Sep-15 04:00N 32°08' W 081°09'0 0.0
2017-Sep-15 03:30N 32°08' W 081°09'0 0.0
2017-Sep-15 03:00N 32°08' W 081°09'0 0.0
2017-Sep-15 02:30N 32°08' W 081°09'0 0.0
2017-Sep-15 02:00N 32°08' W 081°09'0 0.0
2017-Sep-15 01:18N 32°08' W 081°09'0 0.0
2017-Sep-15 01:00N 32°08' W 081°09'0 0.0
2017-Sep-15 00:30N 32°08' W 081°09'0 0.0
2017-Sep-15 00:00N 32°08' W 081°09'0 0.0
2017-Sep-14 23:30N 32°08' W 081°09'0 0.0
2017-Sep-14 23:00N 32°08' W 081°09'0 0.0
2017-Sep-14 22:24N 32°08' W 081°09'0 0.0
2017-Sep-14 22:00N 32°08' W 081°09'0 0.0
2017-Sep-14 21:30N 32°08' W 081°09'0 0.0
2017-Sep-14 21:00N 32°08' W 081°09'0 0.0
2017-Sep-14 20:30N 32°08' W 081°09'0 0.0
2017-Sep-14 20:00N 32°08' W 081°09'0 0.0
2017-Sep-14 19:24N 32°08' W 081°09'0 0.0
2017-Sep-14 19:00N 32°08' W 081°09'0 0.0
2017-Sep-14 18:30N 32°08' W 081°09'0 0.0
2017-Sep-14 18:00N 32°08' W 081°09'0 0.0
2017-Sep-14 17:24N 32°08' W 081°09'0 0.0
2017-Sep-14 16:54N 32°08' W 081°09'0 0.0
2017-Sep-14 16:30N 32°08' W 081°09'0 0.0
2017-Sep-14 16:00N 32°08' W 081°09'0 0.0
2017-Sep-14 15:30N 32°08' W 081°09'0 0.0
2017-Sep-14 15:00N 32°08' W 081°09'0 0.0
2017-Sep-14 14:30N 32°08' W 081°09'0 0.0
2017-Sep-14 14:00N 32°08' W 081°09'0 0.0
2017-Sep-14 13:30N 32°08' W 081°09'0 0.0
2017-Sep-14 12:54N 32°08' W 081°09'0 0.0
2017-Sep-14 12:30N 32°08' W 081°09'0 0.0
2017-Sep-14 12:00N 32°08' W 081°09'0 0.0
2017-Sep-14 11:24N 32°08' W 081°09'0 0.0
2017-Sep-14 10:48N 32°08' W 081°09'0 0.0
2017-Sep-14 10:30N 32°08' W 081°09'0 0.0
2017-Sep-14 10:00N 32°08' W 081°09'0 0.0
2017-Sep-14 09:30N 32°08' W 081°09'0 0.0
2017-Sep-14 08:48N 32°08' W 081°09'0 0.0
2017-Sep-14 08:30N 32°08' W 081°09'0 0.0
2017-Sep-14 08:00N 32°08' W 081°09'0 0.0
2017-Sep-14 07:30N 32°08' W 081°09'0 0.0
2017-Sep-14 07:00N 32°08' W 081°09'0 0.0
2017-Sep-14 06:30N 32°08' W 081°09'0 0.0
2017-Sep-14 06:00N 32°08' W 081°09'0 0.0
2017-Sep-14 05:30N 32°08' W 081°09'0 0.0
2017-Sep-14 05:00N 32°08' W 081°09'0 0.0
2017-Sep-14 04:30N 32°08' W 081°09'0 0.0
2017-Sep-14 03:54N 32°08' W 081°09'0 0.0
2017-Sep-14 03:24N 32°08' W 081°09'0 0.0
2017-Sep-14 02:54N 32°08' W 081°09'0 0.0
2017-Sep-14 02:30N 32°08' W 081°09'0 0.0
2017-Sep-14 02:00N 32°08' W 081°09'0 0.0
2017-Sep-14 01:30N 32°08' W 081°09'0 0.0
2017-Sep-14 01:00N 32°08' W 081°09'0 0.0
2017-Sep-14 00:30N 32°08' W 081°09'0 0.0
2017-Sep-14 00:00N 32°08' W 081°09'0 0.0
2017-Sep-13 23:18N 32°08' W 081°09'0 0.0
2017-Sep-13 23:00N 32°08' W 081°09'0 0.0
2017-Sep-13 22:30N 32°08' W 081°09'0 0.0
2017-Sep-13 22:00N 32°08' W 081°09'0 0.0
2017-Sep-13 21:30N 32°08' W 081°09'0 0.0
2017-Sep-13 21:00N 32°08' W 081°09'0 0.0
2017-Sep-13 20:30N 32°08' W 081°09'0 0.0
2017-Sep-13 20:00N 32°08' W 081°09'0 0.5
2017-Sep-13 19:30N 32°08' W 081°08'1 2.6
2017-Sep-13 19:00N 32°07' W 081°08'2 3.8
2017-Sep-13 18:30N 32°06' W 081°06'2 3.6
2017-Sep-13 18:00N 32°05' W 081°04'4 7.7
2017-Sep-13 17:30N 32°06' W 081°00'5 9.7
2017-Sep-13 17:00N 32°03' W 080°56'510.3
2017-Sep-13 16:30N 32°02' W 080°50'713.0
2017-Sep-13 16:00N 31°58' W 080°44'4 8.8
2017-Sep-13 15:30N 31°56' W 080°39'3 6.0
2017-Sep-13 15:00N 31°57' W 080°35'4 8.1
2017-Sep-13 14:30N 31°56' W 080°31'5 9.3
2017-Sep-13 14:00N 31°57' W 080°25'5 9.6
2017-Sep-13 13:30N 31°58' W 080°20'4 8.1
2017-Sep-13 13:00N 32°00' W 080°16'1 1.8
2017-Sep-13 12:30N 32°00' W 080°14'4 7.4
2017-Sep-13 12:00N 32°01' W 080°10'5 9.9
2017-Sep-13 11:31N 32°02' W 080°05'5 9.8
2017-Sep-13 11:00N 32°04' W 079°59'365 7.8
2017-Sep-11 12:22N 36°43' W 075°15'  
2017-Sep-08 01:06N 36°51' W 075°51'1 8.7
2017-Sep-08 00:58N 36°52' W 075°52'4 8.6
2017-Sep-08 00:30N 36°55' W 075°56'4 8.8
2017-Sep-08 00:00N 36°57' W 076°01'612.7
2017-Sep-07 23:30N 36°59' W 076°08'714.0
2017-Sep-07 23:01N 37°00' W 076°17'4 8.7
2017-Sep-07 22:30N 36°57' W 076°20'4 7.6
2017-Sep-07 22:00N 36°53' W 076°20'1 1.5
2017-Sep-07 21:28N 36°52' W 076°21'0 0.0
2017-Sep-07 20:55N 36°52' W 076°21'0 0.0
2017-Sep-07 20:28N 36°52' W 076°21'0 0.0
2017-Sep-07 19:58N 36°52' W 076°21'0 0.0
2017-Sep-07 19:28N 36°52' W 076°21'0 0.0
2017-Sep-07 18:58N 36°52' W 076°21'0 0.0
2017-Sep-07 18:28N 36°52' W 076°21'0 0.0
2017-Sep-07 17:55N 36°52' W 076°21'0 0.0
2017-Sep-07 17:04N 36°52' W 076°21'0 0.0
2017-Sep-07 16:58N 36°52' W 076°21'0 0.0
2017-Sep-07 16:28N 36°52' W 076°21'0 0.0
2017-Sep-07 15:55N 36°52' W 076°21'0 0.0
2017-Sep-07 15:28N 36°52' W 076°21'0 0.0
2017-Sep-07 14:55N 36°52' W 076°21'0 0.0
2017-Sep-07 14:10N 36°52' W 076°21'0 0.0
2017-Sep-07 13:58N 36°52' W 076°21'0 0.0
2017-Sep-07 13:28N 36°52' W 076°21'0 0.0
2017-Sep-07 12:43N 36°52' W 076°21'0 0.0
2017-Sep-07 12:28N 36°52' W 076°21'0 0.0
2017-Sep-07 11:52N 36°52' W 076°21'0 0.0
2017-Sep-07 11:28N 36°52' W 076°21'0 0.0
2017-Sep-07 10:58N 36°52' W 076°21'0 0.0
2017-Sep-07 10:28N 36°52' W 076°21'0 0.0
2017-Sep-07 09:58N 36°52' W 076°21'0 0.0
2017-Sep-07 09:28N 36°52' W 076°21'0 0.0
2017-Sep-07 08:58N 36°52' W 076°21'0 0.0
2017-Sep-07 08:28N 36°52' W 076°21'  
Track history (hours):
 
Tides and Currents Weather Stations Pressure Air Temp Water Temp Dewpoint Dewpoint Depression Visibility Wind Speed Wind Dir Waves Ship Positions

CMA CGM J. Adams

Last reported at 2017-Sep-17 08:25 UTC. Time now 2017-Sep-23 16:41 UTC.
Position N 32°50' W 079°54'.

Length 366 m; draft 12.8 m.

Type: Ship (hazmat cat D). MMSI: 232007935.

Date/timePositionNaut miles runAvg speedWind from/ knotsBaromVisibWave heightAir tempDewpointWater temp
2017-Sep-17 08:25N 32°50' W 079°54'0 0.0
2017-Sep-17 07:55N 32°50' W 079°54'0 0.0
2017-Sep-17 07:07N 32°50' W 079°54'0 0.1
2017-Sep-17 07:01N 32°50' W 079°54'1 1.9
2017-Sep-17 06:30N 32°49' W 079°54'3 6.1
2017-Sep-17 06:00N 32°46' W 079°53'611.9
2017-Sep-17 05:30N 32°43' W 079°47'813.7
2017-Sep-17 04:55N 32°39' W 079°39'27 2.1
2017-Sep-16 16:05N 32°16' W 079°56'1 8.4
2017-Sep-16 16:00N 32°16' W 079°57'7 8.5
2017-Sep-16 15:14N 32°11' W 080°02'2 8.6
2017-Sep-16 15:00N 32°10' W 080°04'4 8.7
2017-Sep-16 14:30N 32°07' W 080°08'4 8.6
2017-Sep-16 14:00N 32°04' W 080°11'4 8.6
2017-Sep-16 13:30N 32°01' W 080°15'4 8.4
2017-Sep-16 13:00N 31°58' W 080°18'4 8.9
2017-Sep-16 12:30N 31°56' W 080°23'510.0
2017-Sep-16 12:00N 31°56' W 080°29'510.0
2017-Sep-16 11:30N 31°57' W 080°35'5 9.3
2017-Sep-16 11:00N 31°57' W 080°41'510.1
2017-Sep-16 10:30N 31°59' W 080°46'510.5
2017-Sep-16 10:00N 32°02' W 080°51'5 9.0
2017-Sep-16 09:29N 32°03' W 080°56'4 8.5
2017-Sep-16 09:00N 32°06' W 080°60'3 6.7
2017-Sep-16 08:30N 32°05' W 081°04'2 4.5
2017-Sep-16 08:00N 32°06' W 081°06'2 3.7
2017-Sep-16 07:30N 32°07' W 081°08'1 2.4
2017-Sep-16 07:00N 32°08' W 081°08'0 0.7
2017-Sep-16 06:21N 32°08' W 081°09'0 0.0
2017-Sep-16 05:57N 32°08' W 081°09'0 0.0
2017-Sep-16 05:09N 32°08' W 081°09'0 0.0
2017-Sep-16 04:57N 32°08' W 081°09'0 0.0
2017-Sep-16 04:21N 32°08' W 081°09'0 0.0
2017-Sep-16 03:45N 32°08' W 081°09'0 0.0
2017-Sep-16 03:21N 32°08' W 081°09'0 0.0
2017-Sep-16 02:57N 32°08' W 081°09'0 0.0
2017-Sep-16 02:27N 32°08' W 081°09'0 0.0
2017-Sep-16 01:57N 32°08' W 081°09'0 0.0
2017-Sep-16 01:27N 32°08' W 081°09'0 0.0
2017-Sep-16 00:57N 32°08' W 081°09'0 0.0
2017-Sep-16 00:27N 32°08' W 081°09'0 0.0
2017-Sep-15 23:57N 32°08' W 081°09'0 0.0
2017-Sep-15 23:27N 32°08' W 081°09'0 0.0
2017-Sep-15 22:57N 32°08' W 081°09'0 0.0
2017-Sep-15 22:27N 32°08' W 081°09'0 0.0
2017-Sep-15 21:57N 32°08' W 081°09'0 0.0
2017-Sep-15 21:27N 32°08' W 081°09'0 0.0
2017-Sep-15 20:57N 32°08' W 081°09'0 0.0
2017-Sep-15 20:27N 32°08' W 081°09'0 0.0
2017-Sep-15 19:57N 32°08' W 081°09'0 0.0
2017-Sep-15 19:27N 32°08' W 081°09'0 0.0
2017-Sep-15 18:57N 32°08' W 081°09'0 0.0
2017-Sep-15 18:27N 32°08' W 081°09'0 0.0
2017-Sep-15 17:57N 32°08' W 081°09'0 0.0
2017-Sep-15 17:29N 32°08' W 081°09'0 0.0
2017-Sep-15 17:00N 32°08' W 081°09'0 0.0
2017-Sep-15 16:24N 32°08' W 081°09'0 0.0
2017-Sep-15 15:48N 32°08' W 081°09'0 0.0
2017-Sep-15 15:30N 32°08' W 081°09'0 0.0
2017-Sep-15 15:00N 32°08' W 081°09'0 0.0
2017-Sep-15 14:30N 32°08' W 081°09'0 0.0
2017-Sep-15 14:00N 32°08' W 081°09'0 0.0
2017-Sep-15 13:24N 32°08' W 081°09'0 0.0
2017-Sep-15 13:00N 32°08' W 081°09'0 0.0
2017-Sep-15 12:30N 32°08' W 081°09'0 0.0
2017-Sep-15 12:00N 32°08' W 081°09'0 0.0
2017-Sep-15 11:30N 32°08' W 081°09'0 0.0
2017-Sep-15 11:00N 32°08' W 081°09'0 0.0
2017-Sep-15 10:30N 32°08' W 081°09'0 0.0
2017-Sep-15 10:00N 32°08' W 081°09'0 0.0
2017-Sep-15 09:30N 32°08' W 081°09'0 0.0
2017-Sep-15 09:00N 32°08' W 081°09'0 0.0
2017-Sep-15 08:30N 32°08' W 081°09'0 0.0
2017-Sep-15 08:00N 32°08' W 081°09'0 0.0
2017-Sep-15 07:30N 32°08' W 081°09'0 0.0
2017-Sep-15 07:00N 32°08' W 081°09'0 0.0
2017-Sep-15 06:30N 32°08' W 081°09'0 0.0
2017-Sep-15 06:00N 32°08' W 081°09'0 0.0
2017-Sep-15 05:24N 32°08' W 081°09'0 0.0
2017-Sep-15 05:00N 32°08' W 081°09'0 0.0
2017-Sep-15 04:30N 32°08' W 081°09'0 0.0
2017-Sep-15 04:00N 32°08' W 081°09'0 0.0
2017-Sep-15 03:30N 32°08' W 081°09'0 0.0
2017-Sep-15 03:00N 32°08' W 081°09'0 0.0
2017-Sep-15 02:30N 32°08' W 081°09'0 0.0
2017-Sep-15 02:00N 32°08' W 081°09'0 0.0
2017-Sep-15 01:18N 32°08' W 081°09'0 0.0
2017-Sep-15 01:00N 32°08' W 081°09'0 0.0
2017-Sep-15 00:30N 32°08' W 081°09'0 0.0
2017-Sep-15 00:00N 32°08' W 081°09'0 0.0
2017-Sep-14 23:30N 32°08' W 081°09'0 0.0
2017-Sep-14 23:00N 32°08' W 081°09'0 0.0
2017-Sep-14 22:24N 32°08' W 081°09'0 0.0
2017-Sep-14 22:00N 32°08' W 081°09'0 0.0
2017-Sep-14 21:30N 32°08' W 081°09'0 0.0
2017-Sep-14 21:00N 32°08' W 081°09'0 0.0
2017-Sep-14 20:30N 32°08' W 081°09'0 0.0
2017-Sep-14 20:00N 32°08' W 081°09'0 0.0
2017-Sep-14 19:24N 32°08' W 081°09'0 0.0
2017-Sep-14 19:00N 32°08' W 081°09'0 0.0
2017-Sep-14 18:30N 32°08' W 081°09'0 0.0
2017-Sep-14 18:00N 32°08' W 081°09'0 0.0
2017-Sep-14 17:24N 32°08' W 081°09'0 0.0
2017-Sep-14 16:54N 32°08' W 081°09'0 0.0
2017-Sep-14 16:30N 32°08' W 081°09'0 0.0
2017-Sep-14 16:00N 32°08' W 081°09'0 0.0
2017-Sep-14 15:30N 32°08' W 081°09'0 0.0
2017-Sep-14 15:00N 32°08' W 081°09'0 0.0
2017-Sep-14 14:30N 32°08' W 081°09'0 0.0
2017-Sep-14 14:00N 32°08' W 081°09'0 0.0
2017-Sep-14 13:30N 32°08' W 081°09'0 0.0
2017-Sep-14 12:54N 32°08' W 081°09'0 0.0
2017-Sep-14 12:30N 32°08' W 081°09'0 0.0
2017-Sep-14 12:00N 32°08' W 081°09'0 0.0
2017-Sep-14 11:24N 32°08' W 081°09'0 0.0
2017-Sep-14 10:48N 32°08' W 081°09'0 0.0
2017-Sep-14 10:30N 32°08' W 081°09'0 0.0
2017-Sep-14 10:00N 32°08' W 081°09'0 0.0
2017-Sep-14 09:30N 32°08' W 081°09'0 0.0
2017-Sep-14 08:48N 32°08' W 081°09'0 0.0
2017-Sep-14 08:30N 32°08' W 081°09'0 0.0
2017-Sep-14 08:00N 32°08' W 081°09'0 0.0
2017-Sep-14 07:30N 32°08' W 081°09'0 0.0
2017-Sep-14 07:00N 32°08' W 081°09'0 0.0
2017-Sep-14 06:30N 32°08' W 081°09'0 0.0
2017-Sep-14 06:00N 32°08' W 081°09'0 0.0
2017-Sep-14 05:30N 32°08' W 081°09'0 0.0
2017-Sep-14 05:00N 32°08' W 081°09'0 0.0
2017-Sep-14 04:30N 32°08' W 081°09'0 0.0
2017-Sep-14 03:54N 32°08' W 081°09'0 0.0
2017-Sep-14 03:24N 32°08' W 081°09'0 0.0
2017-Sep-14 02:54N 32°08' W 081°09'0 0.0
2017-Sep-14 02:30N 32°08' W 081°09'0 0.0
2017-Sep-14 02:00N 32°08' W 081°09'0 0.0
2017-Sep-14 01:30N 32°08' W 081°09'0 0.0
2017-Sep-14 01:00N 32°08' W 081°09'0 0.0
2017-Sep-14 00:30N 32°08' W 081°09'0 0.0
2017-Sep-14 00:00N 32°08' W 081°09'0 0.0
2017-Sep-13 23:18N 32°08' W 081°09'0 0.0
2017-Sep-13 23:00N 32°08' W 081°09'0 0.0
2017-Sep-13 22:30N 32°08' W 081°09'0 0.0
2017-Sep-13 22:00N 32°08' W 081°09'0 0.0
2017-Sep-13 21:30N 32°08' W 081°09'0 0.0
2017-Sep-13 21:00N 32°08' W 081°09'0 0.0
2017-Sep-13 20:30N 32°08' W 081°09'0 0.0
2017-Sep-13 20:00N 32°08' W 081°09'0 0.5
2017-Sep-13 19:30N 32°08' W 081°08'1 2.6
2017-Sep-13 19:00N 32°07' W 081°08'2 3.8
2017-Sep-13 18:30N 32°06' W 081°06'2 3.6
2017-Sep-13 18:00N 32°05' W 081°04'4 7.7
2017-Sep-13 17:30N 32°06' W 081°00'5 9.7
2017-Sep-13 17:00N 32°03' W 080°56'510.3
2017-Sep-13 16:30N 32°02' W 080°50'713.0
2017-Sep-13 16:00N 31°58' W 080°44'4 8.8
2017-Sep-13 15:30N 31°56' W 080°39'3 6.0
2017-Sep-13 15:00N 31°57' W 080°35'4 8.1
2017-Sep-13 14:30N 31°56' W 080°31'5 9.3
2017-Sep-13 14:00N 31°57' W 080°25'5 9.6
2017-Sep-13 13:30N 31°58' W 080°20'4 8.1
2017-Sep-13 13:00N 32°00' W 080°16'1 1.8
2017-Sep-13 12:30N 32°00' W 080°14'4 7.4
2017-Sep-13 12:00N 32°01' W 080°10'5 9.9
2017-Sep-13 11:31N 32°02' W 080°05'5 9.8
2017-Sep-13 11:00N 32°04' W 079°59'365 7.8
2017-Sep-11 12:22N 36°43' W 075°15'  
2017-Sep-08 01:06N 36°51' W 075°51'1 8.7
2017-Sep-08 00:58N 36°52' W 075°52'4 8.6
2017-Sep-08 00:30N 36°55' W 075°56'4 8.8
2017-Sep-08 00:00N 36°57' W 076°01'612.7
2017-Sep-07 23:30N 36°59' W 076°08'714.0
2017-Sep-07 23:01N 37°00' W 076°17'4 8.7
2017-Sep-07 22:30N 36°57' W 076°20'4 7.6
2017-Sep-07 22:00N 36°53' W 076°20'1 1.5
2017-Sep-07 21:28N 36°52' W 076°21'0 0.0
2017-Sep-07 20:55N 36°52' W 076°21'0 0.0
2017-Sep-07 20:28N 36°52' W 076°21'0 0.0
2017-Sep-07 19:58N 36°52' W 076°21'0 0.0
2017-Sep-07 19:28N 36°52' W 076°21'0 0.0
2017-Sep-07 18:58N 36°52' W 076°21'0 0.0
2017-Sep-07 18:28N 36°52' W 076°21'0 0.0
2017-Sep-07 17:55N 36°52' W 076°21'0 0.0
2017-Sep-07 17:04N 36°52' W 076°21'0 0.0
2017-Sep-07 16:58N 36°52' W 076°21'0 0.0
2017-Sep-07 16:28N 36°52' W 076°21'0 0.0
2017-Sep-07 15:55N 36°52' W 076°21'0 0.0
2017-Sep-07 15:28N 36°52' W 076°21'0 0.0
2017-Sep-07 14:55N 36°52' W 076°21'0 0.0
2017-Sep-07 14:10N 36°52' W 076°21'0 0.0
2017-Sep-07 13:58N 36°52' W 076°21'0 0.0
2017-Sep-07 13:28N 36°52' W 076°21'0 0.0
2017-Sep-07 12:43N 36°52' W 076°21'0 0.0
2017-Sep-07 12:28N 36°52' W 076°21'0 0.0
2017-Sep-07 11:52N 36°52' W 076°21'0 0.0
2017-Sep-07 11:28N 36°52' W 076°21'0 0.0
2017-Sep-07 10:58N 36°52' W 076°21'0 0.0
2017-Sep-07 10:28N 36°52' W 076°21'0 0.0
2017-Sep-07 09:58N 36°52' W 076°21'0 0.0
2017-Sep-07 09:28N 36°52' W 076°21'0 0.0
2017-Sep-07 08:58N 36°52' W 076°21'0 0.0
2017-Sep-07 08:28N 36°52' W 076°21'  

Dump ship's entire track history